sensor_id;sensor_type;location;lat;lon;timestamp;P1;durP1;ratioP1;P2;durP2;ratioP2
19842;SDS011;10082;51.038;6.992;2023-05-07T00:02:03;5.20;;;4.50;;
19842;SDS011;10082;51.038;6.992;2023-05-07T00:04:30;4.93;;;4.47;;
19842;SDS011;10082;51.038;6.992;2023-05-07T00:07:01;4.80;;;4.32;;
19842;SDS011;10082;51.038;6.992;2023-05-07T00:09:28;4.70;;;4.30;;
19842;SDS011;10082;51.038;6.992;2023-05-07T00:11:57;4.50;;;4.10;;
19842;SDS011;10082;51.038;6.992;2023-05-07T00:14:24;4.65;;;4.25;;
19842;SDS011;10082;51.038;6.992;2023-05-07T00:16:51;4.45;;;4.07;;
19842;SDS011;10082;51.038;6.992;2023-05-07T00:19:17;4.55;;;4.15;;
19842;SDS011;10082;51.038;6.992;2023-05-07T00:21:45;4.50;;;4.10;;
19842;SDS011;10082;51.038;6.992;2023-05-07T00:24:12;4.82;;;4.38;;
19842;SDS011;10082;51.038;6.992;2023-05-07T00:26:39;4.72;;;4.43;;
19842;SDS011;10082;51.038;6.992;2023-05-07T00:29:07;5.03;;;3.97;;
19842;SDS011;10082;51.038;6.992;2023-05-07T00:31:34;4.68;;;4.15;;
19842;SDS011;10082;51.038;6.992;2023-05-07T00:34:01;4.68;;;4.28;;
19842;SDS011;10082;51.038;6.992;2023-05-07T00:36:29;4.47;;;4.07;;
19842;SDS011;10082;51.038;6.992;2023-05-07T00:38:56;4.40;;;4.00;;
19842;SDS011;10082;51.038;6.992;2023-05-07T00:41:23;4.38;;;3.80;;
19842;SDS011;10082;51.038;6.992;2023-05-07T00:43:54;4.85;;;4.40;;
19842;SDS011;10082;51.038;6.992;2023-05-07T00:46:23;4.60;;;4.20;;
19842;SDS011;10082;51.038;6.992;2023-05-07T00:48:51;4.82;;;4.40;;
19842;SDS011;10082;51.038;6.992;2023-05-07T00:51:19;4.80;;;4.35;;
19842;SDS011;10082;51.038;6.992;2023-05-07T00:53:47;4.85;;;4.45;;
19842;SDS011;10082;51.038;6.992;2023-05-07T00:56:14;5.03;;;4.50;;
19842;SDS011;10082;51.038;6.992;2023-05-07T00:58:42;4.90;;;4.45;;
19842;SDS011;10082;51.038;6.992;2023-05-07T01:01:09;4.90;;;4.47;;
19842;SDS011;10082;51.038;6.992;2023-05-07T01:03:38;5.05;;;4.53;;
19842;SDS011;10082;51.038;6.992;2023-05-07T01:06:06;5.10;;;4.70;;
19842;SDS011;10082;51.038;6.992;2023-05-07T01:08:34;4.80;;;4.40;;
19842;SDS011;10082;51.038;6.992;2023-05-07T01:11:05;5.57;;;4.90;;
19842;SDS011;10082;51.038;6.992;2023-05-07T01:13:33;5.07;;;4.68;;
19842;SDS011;10082;51.038;6.992;2023-05-07T01:16:01;4.88;;;4.47;;
19842;SDS011;10082;51.038;6.992;2023-05-07T01:18:29;5.18;;;4.78;;
19842;SDS011;10082;51.038;6.992;2023-05-07T01:20:58;4.40;;;4.10;;
19842;SDS011;10082;51.038;6.992;2023-05-07T01:23:29;4.47;;;4.07;;
19842;SDS011;10082;51.038;6.992;2023-05-07T01:25:56;3.92;;;3.65;;
19842;SDS011;10082;51.038;6.992;2023-05-07T01:28:25;4.07;;;3.72;;
19842;SDS011;10082;51.038;6.992;2023-05-07T01:30:56;3.63;;;3.33;;
19842;SDS011;10082;51.038;6.992;2023-05-07T01:33:28;4.28;;;3.80;;
19842;SDS011;10082;51.038;6.992;2023-05-07T01:35:57;3.92;;;3.58;;
19842;SDS011;10082;51.038;6.992;2023-05-07T01:38:30;3.40;;;3.20;;
19842;SDS011;10082;51.038;6.992;2023-05-07T01:40:58;3.53;;;3.22;;
19842;SDS011;10082;51.038;6.992;2023-05-07T01:43:26;3.78;;;3.47;;
19842;SDS011;10082;51.038;6.992;2023-05-07T01:45:55;3.50;;;3.20;;
19842;SDS011;10082;51.038;6.992;2023-05-07T01:48:24;3.47;;;3.17;;
19842;SDS011;10082;51.038;6.992;2023-05-07T01:50:52;3.70;;;3.40;;
19842;SDS011;10082;51.038;6.992;2023-05-07T01:53:20;3.45;;;2.90;;
19842;SDS011;10082;51.038;6.992;2023-05-07T01:55:48;3.45;;;3.15;;
19842;SDS011;10082;51.038;6.992;2023-05-07T01:58:15;3.55;;;3.22;;
19842;SDS011;10082;51.038;6.992;2023-05-07T02:00:42;3.45;;;3.15;;
19842;SDS011;10082;51.038;6.992;2023-05-07T02:03:09;3.92;;;3.25;;
19842;SDS011;10082;51.038;6.992;2023-05-07T02:05:46;3.70;;;3.40;;
19842;SDS011;10082;51.038;6.992;2023-05-07T02:08:24;3.83;;;3.10;;
19842;SDS011;10082;51.038;6.992;2023-05-07T02:10:53;3.45;;;3.15;;
19842;SDS011;10082;51.038;6.992;2023-05-07T02:13:20;3.60;;;3.30;;
19842;SDS011;10082;51.038;6.992;2023-05-07T02:15:47;3.75;;;3.45;;
19842;SDS011;10082;51.038;6.992;2023-05-07T02:18:16;3.50;;;3.20;;
19842;SDS011;10082;51.038;6.992;2023-05-07T02:20:43;3.30;;;3.05;;
19842;SDS011;10082;51.038;6.992;2023-05-07T02:23:10;3.40;;;3.17;;
19842;SDS011;10082;51.038;6.992;2023-05-07T02:25:37;4.10;;;3.70;;
19842;SDS011;10082;51.038;6.992;2023-05-07T02:28:06;3.60;;;3.30;;
19842;SDS011;10082;51.038;6.992;2023-05-07T02:30:41;3.80;;;3.50;;
19842;SDS011;10082;51.038;6.992;2023-05-07T02:33:08;3.33;;;3.13;;
19842;SDS011;10082;51.038;6.992;2023-05-07T02:35:37;3.63;;;3.33;;
19842;SDS011;10082;51.038;6.992;2023-05-07T02:38:05;4.97;;;3.58;;
19842;SDS011;10082;51.038;6.992;2023-05-07T02:40:34;3.63;;;3.33;;
19842;SDS011;10082;51.038;6.992;2023-05-07T02:43:05;3.70;;;3.40;;
19842;SDS011;10082;51.038;6.992;2023-05-07T02:45:33;4.30;;;3.75;;
19842;SDS011;10082;51.038;6.992;2023-05-07T02:48:02;6.60;;;3.60;;
19842;SDS011;10082;51.038;6.992;2023-05-07T02:50:30;4.47;;;3.50;;
19842;SDS011;10082;51.038;6.992;2023-05-07T02:53:01;4.07;;;3.55;;
19842;SDS011;10082;51.038;6.992;2023-05-07T02:55:29;3.53;;;3.22;;
19842;SDS011;10082;51.038;6.992;2023-05-07T02:57:56;4.05;;;3.65;;
19842;SDS011;10082;51.038;6.992;2023-05-07T03:00:27;3.60;;;3.30;;
19842;SDS011;10082;51.038;6.992;2023-05-07T03:03:08;4.43;;;4.10;;
19842;SDS011;10082;51.038;6.992;2023-05-07T03:05:36;4.60;;;4.20;;
19842;SDS011;10082;51.038;6.992;2023-05-07T03:08:04;4.13;;;3.85;;
19842;SDS011;10082;51.038;6.992;2023-05-07T03:10:34;4.05;;;3.70;;
19842;SDS011;10082;51.038;6.992;2023-05-07T03:13:02;3.92;;;3.60;;
19842;SDS011;10082;51.038;6.992;2023-05-07T03:15:31;4.68;;;4.22;;
19842;SDS011;10082;51.038;6.992;2023-05-07T03:17:58;4.38;;;3.97;;
19842;SDS011;10082;51.038;6.992;2023-05-07T03:20:25;4.40;;;4.10;;
19842;SDS011;10082;51.038;6.992;2023-05-07T03:22:52;4.63;;;4.18;;
19842;SDS011;10082;51.038;6.992;2023-05-07T03:25:19;4.63;;;4.10;;
19842;SDS011;10082;51.038;6.992;2023-05-07T03:27:46;5.00;;;4.50;;
19842;SDS011;10082;51.038;6.992;2023-05-07T03:30:17;4.53;;;4.05;;
19842;SDS011;10082;51.038;6.992;2023-05-07T03:32:45;4.68;;;4.28;;
19842;SDS011;10082;51.038;6.992;2023-05-07T03:35:16;4.65;;;4.35;;
19842;SDS011;10082;51.038;6.992;2023-05-07T03:37:42;4.47;;;3.95;;
19842;SDS011;10082;51.038;6.992;2023-05-07T03:40:11;4.68;;;4.25;;
19842;SDS011;10082;51.038;6.992;2023-05-07T03:42:46;4.47;;;4.07;;
19842;SDS011;10082;51.038;6.992;2023-05-07T03:45:13;4.28;;;3.88;;
19842;SDS011;10082;51.038;6.992;2023-05-07T03:47:46;4.68;;;4.28;;
19842;SDS011;10082;51.038;6.992;2023-05-07T03:50:18;4.38;;;4.07;;
19842;SDS011;10082;51.038;6.992;2023-05-07T03:52:46;6.07;;;4.57;;
19842;SDS011;10082;51.038;6.992;2023-05-07T03:55:15;5.25;;;4.63;;
19842;SDS011;10082;51.038;6.992;2023-05-07T03:57:48;5.07;;;4.53;;
19842;SDS011;10082;51.038;6.992;2023-05-07T04:00:16;4.53;;;4.10;;
19842;SDS011;10082;51.038;6.992;2023-05-07T04:02:49;4.72;;;4.30;;
19842;SDS011;10082;51.038;6.992;2023-05-07T04:05:23;3.92;;;3.63;;
19842;SDS011;10082;51.038;6.992;2023-05-07T04:07:57;4.15;;;3.75;;
19842;SDS011;10082;51.038;6.992;2023-05-07T04:10:31;4.25;;;3.83;;
19842;SDS011;10082;51.038;6.992;2023-05-07T04:13:02;4.03;;;3.72;;
19842;SDS011;10082;51.038;6.992;2023-05-07T04:15:35;4.00;;;3.70;;
19842;SDS011;10082;51.038;6.992;2023-05-07T04:18:07;4.50;;;4.18;;
19842;SDS011;10082;51.038;6.992;2023-05-07T04:20:36;4.35;;;3.95;;
19842;SDS011;10082;51.038;6.992;2023-05-07T04:23:07;4.57;;;4.20;;
19842;SDS011;10082;51.038;6.992;2023-05-07T04:25:34;4.75;;;4.35;;
19842;SDS011;10082;51.038;6.992;2023-05-07T04:28:19;6.10;;;4.20;;
19842;SDS011;10082;51.038;6.992;2023-05-07T04:30:47;4.80;;;4.40;;
19842;SDS011;10082;51.038;6.992;2023-05-07T04:33:16;4.07;;;3.78;;
19842;SDS011;10082;51.038;6.992;2023-05-07T04:35:47;4.80;;;4.40;;
19842;SDS011;10082;51.038;6.992;2023-05-07T04:38:14;4.65;;;4.10;;
19842;SDS011;10082;51.038;6.992;2023-05-07T04:40:42;4.68;;;4.30;;
19842;SDS011;10082;51.038;6.992;2023-05-07T04:43:12;4.65;;;4.25;;
19842;SDS011;10082;51.038;6.992;2023-05-07T04:45:45;4.20;;;3.80;;
19842;SDS011;10082;51.038;6.992;2023-05-07T04:48:12;4.18;;;3.03;;
19842;SDS011;10082;51.038;6.992;2023-05-07T04:50:42;3.83;;;3.00;;
19842;SDS011;10082;51.038;6.992;2023-05-07T04:53:11;3.38;;;2.97;;
19842;SDS011;10082;51.038;6.992;2023-05-07T04:55:41;3.28;;;3.03;;
19842;SDS011;10082;51.038;6.992;2023-05-07T04:58:08;3.70;;;2.90;;
19842;SDS011;10082;51.038;6.992;2023-05-07T05:00:37;4.90;;;3.08;;
19842;SDS011;10082;51.038;6.992;2023-05-07T05:03:06;3.17;;;2.63;;
19842;SDS011;10082;51.038;6.992;2023-05-07T05:05:33;3.20;;;2.90;;
19842;SDS011;10082;51.038;6.992;2023-05-07T05:08:03;3.03;;;2.40;;
19842;SDS011;10082;51.038;6.992;2023-05-07T05:10:31;3.10;;;2.80;;
19842;SDS011;10082;51.038;6.992;2023-05-07T05:12:59;3.50;;;2.75;;
19842;SDS011;10082;51.038;6.992;2023-05-07T05:15:26;2.60;;;2.40;;
19842;SDS011;10082;51.038;6.992;2023-05-07T05:17:53;2.60;;;2.40;;
19842;SDS011;10082;51.038;6.992;2023-05-07T05:20:20;2.40;;;2.20;;
19842;SDS011;10082;51.038;6.992;2023-05-07T05:22:48;4.07;;;2.28;;
19842;SDS011;10082;51.038;6.992;2023-05-07T05:25:16;2.88;;;2.53;;
19842;SDS011;10082;51.038;6.992;2023-05-07T05:27:44;2.65;;;2.08;;
19842;SDS011;10082;51.038;6.992;2023-05-07T05:30:11;2.47;;;2.28;;
19842;SDS011;10082;51.038;6.992;2023-05-07T05:32:43;2.72;;;2.30;;
19842;SDS011;10082;51.038;6.992;2023-05-07T05:35:10;2.90;;;2.35;;
19842;SDS011;10082;51.038;6.992;2023-05-07T05:37:39;2.38;;;2.17;;
19842;SDS011;10082;51.038;6.992;2023-05-07T05:40:07;2.88;;;1.92;;
19842;SDS011;10082;51.038;6.992;2023-05-07T05:42:36;1.95;;;1.75;;
19842;SDS011;10082;51.038;6.992;2023-05-07T05:45:04;2.33;;;1.90;;
19842;SDS011;10082;51.038;6.992;2023-05-07T05:47:33;3.10;;;2.30;;
19842;SDS011;10082;51.038;6.992;2023-05-07T05:50:00;2.70;;;2.50;;
19842;SDS011;10082;51.038;6.992;2023-05-07T05:52:28;2.75;;;2.00;;
19842;SDS011;10082;51.038;6.992;2023-05-07T05:54:55;2.35;;;2.10;;
19842;SDS011;10082;51.038;6.992;2023-05-07T05:57:24;1.85;;;1.75;;
19842;SDS011;10082;51.038;6.992;2023-05-07T05:59:54;2.88;;;2.05;;
19842;SDS011;10082;51.038;6.992;2023-05-07T06:02:23;2.30;;;2.10;;
19842;SDS011;10082;51.038;6.992;2023-05-07T06:04:50;2.65;;;1.77;;
19842;SDS011;10082;51.038;6.992;2023-05-07T06:07:20;2.03;;;1.92;;
19842;SDS011;10082;51.038;6.992;2023-05-07T06:09:48;2.33;;;2.10;;
19842;SDS011;10082;51.038;6.992;2023-05-07T06:12:15;4.20;;;2.10;;
19842;SDS011;10082;51.038;6.992;2023-05-07T06:14:42;2.58;;;1.98;;
19842;SDS011;10082;51.038;6.992;2023-05-07T06:17:14;2.10;;;1.90;;
19842;SDS011;10082;51.038;6.992;2023-05-07T06:19:42;2.15;;;1.92;;
19842;SDS011;10082;51.038;6.992;2023-05-07T06:25:33;2.45;;;2.00;;
19842;SDS011;10082;51.038;6.992;2023-05-07T06:28:01;2.05;;;1.95;;
19842;SDS011;10082;51.038;6.992;2023-05-07T06:30:30;2.20;;;2.00;;
19842;SDS011;10082;51.038;6.992;2023-05-07T06:32:59;1.98;;;1.70;;
19842;SDS011;10082;51.038;6.992;2023-05-07T06:35:26;2.65;;;1.90;;
19842;SDS011;10082;51.038;6.992;2023-05-07T06:37:54;3.72;;;1.90;;
19842;SDS011;10082;51.038;6.992;2023-05-07T06:40:24;3.22;;;2.00;;
19842;SDS011;10082;51.038;6.992;2023-05-07T06:42:51;2.08;;;1.80;;
19842;SDS011;10082;51.038;6.992;2023-05-07T06:45:29;2.20;;;1.75;;
19842;SDS011;10082;51.038;6.992;2023-05-07T06:47:59;1.98;;;1.65;;
19842;SDS011;10082;51.038;6.992;2023-05-07T06:50:33;1.63;;;1.52;;
19842;SDS011;10082;51.038;6.992;2023-05-07T06:53:00;1.77;;;1.63;;
19842;SDS011;10082;51.038;6.992;2023-05-07T06:55:28;1.83;;;1.73;;
19842;SDS011;10082;51.038;6.992;2023-05-07T06:57:55;1.98;;;1.77;;
19842;SDS011;10082;51.038;6.992;2023-05-07T07:00:27;2.22;;;1.70;;
19842;SDS011;10082;51.038;6.992;2023-05-07T07:02:55;2.35;;;1.90;;
19842;SDS011;10082;51.038;6.992;2023-05-07T07:05:26;2.47;;;1.75;;
19842;SDS011;10082;51.038;6.992;2023-05-07T07:07:54;1.67;;;1.58;;
19842;SDS011;10082;51.038;6.992;2023-05-07T07:10:21;2.22;;;1.70;;
19842;SDS011;10082;51.038;6.992;2023-05-07T07:12:50;2.08;;;1.88;;
19842;SDS011;10082;51.038;6.992;2023-05-07T07:15:18;2.05;;;1.73;;
19842;SDS011;10082;51.038;6.992;2023-05-07T07:17:47;2.20;;;1.75;;
19842;SDS011;10082;51.038;6.992;2023-05-07T07:20:15;2.42;;;1.85;;
19842;SDS011;10082;51.038;6.992;2023-05-07T07:22:45;2.30;;;1.77;;
19842;SDS011;10082;51.038;6.992;2023-05-07T07:25:18;1.83;;;1.73;;
19842;SDS011;10082;51.038;6.992;2023-05-07T07:27:47;1.88;;;1.77;;
19842;SDS011;10082;51.038;6.992;2023-05-07T07:30:14;2.03;;;1.60;;
19842;SDS011;10082;51.038;6.992;2023-05-07T07:32:45;1.85;;;1.60;;
19842;SDS011;10082;51.038;6.992;2023-05-07T07:35:13;2.35;;;1.77;;
19842;SDS011;10082;51.038;6.992;2023-05-07T07:37:42;1.60;;;1.48;;
19842;SDS011;10082;51.038;6.992;2023-05-07T07:40:13;2.15;;;1.58;;
19842;SDS011;10082;51.038;6.992;2023-05-07T07:42:41;1.40;;;1.30;;
19842;SDS011;10082;51.038;6.992;2023-05-07T07:45:09;1.90;;;1.63;;
19842;SDS011;10082;51.038;6.992;2023-05-07T07:47:41;1.50;;;1.40;;
19842;SDS011;10082;51.038;6.992;2023-05-07T07:50:08;2.58;;;1.55;;
19842;SDS011;10082;51.038;6.992;2023-05-07T07:52:36;1.63;;;1.50;;
19842;SDS011;10082;51.038;6.992;2023-05-07T07:55:05;1.52;;;1.40;;
19842;SDS011;10082;51.038;6.992;2023-05-07T07:57:35;2.30;;;1.63;;
19842;SDS011;10082;51.038;6.992;2023-05-07T08:00:03;2.63;;;1.80;;
19842;SDS011;10082;51.038;6.992;2023-05-07T08:02:42;1.70;;;1.60;;
19842;SDS011;10082;51.038;6.992;2023-05-07T08:05:12;2.08;;;1.88;;
19842;SDS011;10082;51.038;6.992;2023-05-07T08:07:41;1.92;;;1.73;;
19842;SDS011;10082;51.038;6.992;2023-05-07T08:10:09;1.77;;;1.67;;
19842;SDS011;10082;51.038;6.992;2023-05-07T08:12:37;2.85;;;1.70;;
19842;SDS011;10082;51.038;6.992;2023-05-07T08:15:05;1.90;;;1.70;;
19842;SDS011;10082;51.038;6.992;2023-05-07T08:17:33;2.05;;;1.60;;
19842;SDS011;10082;51.038;6.992;2023-05-07T08:20:00;1.60;;;1.50;;
19842;SDS011;10082;51.038;6.992;2023-05-07T08:22:28;1.90;;;1.73;;
19842;SDS011;10082;51.038;6.992;2023-05-07T08:24:55;2.28;;;1.60;;
19842;SDS011;10082;51.038;6.992;2023-05-07T08:27:26;3.92;;;1.98;;
19842;SDS011;10082;51.038;6.992;2023-05-07T08:29:54;2.00;;;1.80;;
19842;SDS011;10082;51.038;6.992;2023-05-07T08:32:22;2.05;;;1.60;;
19842;SDS011;10082;51.038;6.992;2023-05-07T08:34:49;2.22;;;2.03;;
19842;SDS011;10082;51.038;6.992;2023-05-07T08:37:16;3.92;;;2.13;;
19842;SDS011;10082;51.038;6.992;2023-05-07T08:39:44;2.20;;;1.80;;
19842;SDS011;10082;51.038;6.992;2023-05-07T08:42:17;1.70;;;1.60;;
19842;SDS011;10082;51.038;6.992;2023-05-07T08:44:46;1.90;;;1.70;;
19842;SDS011;10082;51.038;6.992;2023-05-07T08:47:20;1.80;;;1.70;;
19842;SDS011;10082;51.038;6.992;2023-05-07T08:49:52;2.75;;;1.70;;
19842;SDS011;10082;51.038;6.992;2023-05-07T08:52:22;1.80;;;1.70;;
19842;SDS011;10082;51.038;6.992;2023-05-07T08:54:49;2.22;;;1.80;;
19842;SDS011;10082;51.038;6.992;2023-05-07T08:57:16;1.60;;;1.50;;
19842;SDS011;10082;51.038;6.992;2023-05-07T08:59:45;2.22;;;1.70;;
19842;SDS011;10082;51.038;6.992;2023-05-07T09:02:12;1.98;;;1.58;;
19842;SDS011;10082;51.038;6.992;2023-05-07T09:04:42;1.60;;;1.50;;
19842;SDS011;10082;51.038;6.992;2023-05-07T09:07:09;4.22;;;1.80;;
19842;SDS011;10082;51.038;6.992;2023-05-07T09:09:40;1.73;;;1.35;;
19842;SDS011;10082;51.038;6.992;2023-05-07T09:12:08;2.78;;;1.85;;
19842;SDS011;10082;51.038;6.992;2023-05-07T09:14:35;1.90;;;1.60;;
19842;SDS011;10082;51.038;6.992;2023-05-07T09:17:03;1.60;;;1.50;;
19842;SDS011;10082;51.038;6.992;2023-05-07T09:19:30;2.65;;;1.70;;
19842;SDS011;10082;51.038;6.992;2023-05-07T09:22:02;1.60;;;1.50;;
19842;SDS011;10082;51.038;6.992;2023-05-07T09:24:50;1.90;;;1.63;;
19842;SDS011;10082;51.038;6.992;2023-05-07T09:27:21;1.83;;;1.40;;
19842;SDS011;10082;51.038;6.992;2023-05-07T09:29:52;4.32;;;1.58;;
19842;SDS011;10082;51.038;6.992;2023-05-07T09:32:19;2.33;;;1.70;;
19842;SDS011;10082;51.038;6.992;2023-05-07T09:34:46;3.85;;;1.60;;
19842;SDS011;10082;51.038;6.992;2023-05-07T09:37:18;2.47;;;2.00;;
19842;SDS011;10082;51.038;6.992;2023-05-07T09:39:46;1.92;;;1.50;;
19842;SDS011;10082;51.038;6.992;2023-05-07T09:42:22;1.77;;;1.67;;
19842;SDS011;10082;51.038;6.992;2023-05-07T09:44:51;1.73;;;1.63;;
19842;SDS011;10082;51.038;6.992;2023-05-07T09:47:23;2.42;;;1.60;;
19842;SDS011;10082;51.038;6.992;2023-05-07T09:49:55;1.58;;;1.48;;
19842;SDS011;10082;51.038;6.992;2023-05-07T09:52:25;1.90;;;1.60;;
19842;SDS011;10082;51.038;6.992;2023-05-07T09:55:00;1.95;;;1.80;;
19842;SDS011;10082;51.038;6.992;2023-05-07T09:57:31;1.60;;;1.50;;
19842;SDS011;10082;51.038;6.992;2023-05-07T10:00:03;2.40;;;1.60;;
19842;SDS011;10082;51.038;6.992;2023-05-07T10:02:46;2.40;;;1.80;;
19842;SDS011;10082;51.038;6.992;2023-05-07T10:05:18;2.20;;;1.77;;
19842;SDS011;10082;51.038;6.992;2023-05-07T10:07:47;2.80;;;1.73;;
19842;SDS011;10082;51.038;6.992;2023-05-07T10:10:19;3.00;;;1.60;;
19842;SDS011;10082;51.038;6.992;2023-05-07T10:12:47;2.15;;;1.92;;
19842;SDS011;10082;51.038;6.992;2023-05-07T10:15:22;1.80;;;1.67;;
19842;SDS011;10082;51.038;6.992;2023-05-07T10:17:53;2.50;;;1.70;;
19842;SDS011;10082;51.038;6.992;2023-05-07T10:20:21;3.00;;;2.03;;
19842;SDS011;10082;51.038;6.992;2023-05-07T10:22:51;2.75;;;1.75;;
19842;SDS011;10082;51.038;6.992;2023-05-07T10:25:27;2.65;;;1.83;;
19842;SDS011;10082;51.038;6.992;2023-05-07T10:28:01;1.92;;;1.80;;
19842;SDS011;10082;51.038;6.992;2023-05-07T10:33:16;4.00;;;1.67;;
19842;SDS011;10082;51.038;6.992;2023-05-07T10:35:47;1.95;;;1.80;;
19842;SDS011;10082;51.038;6.992;2023-05-07T10:38:17;2.20;;;1.63;;
19842;SDS011;10082;51.038;6.992;2023-05-07T10:40:46;1.60;;;1.50;;
19842;SDS011;10082;51.038;6.992;2023-05-07T10:43:15;1.75;;;1.65;;
19842;SDS011;10082;51.038;6.992;2023-05-07T10:46:09;1.70;;;1.52;;
19842;SDS011;10082;51.038;6.992;2023-05-07T10:52:15;4.22;;;1.40;;
19842;SDS011;10082;51.038;6.992;2023-05-07T10:58:24;3.17;;;1.63;;
19842;SDS011;10082;51.038;6.992;2023-05-07T11:00:59;1.40;;;1.30;;
19842;SDS011;10082;51.038;6.992;2023-05-07T11:03:33;1.45;;;1.35;;
19842;SDS011;10082;51.038;6.992;2023-05-07T11:06:08;2.65;;;1.60;;
19842;SDS011;10082;51.038;6.992;2023-05-07T11:08:54;1.88;;;1.50;;
19842;SDS011;10082;51.038;6.992;2023-05-07T11:11:47;1.67;;;1.58;;
19842;SDS011;10082;51.038;6.992;2023-05-07T11:14:42;1.70;;;1.60;;
19842;SDS011;10082;51.038;6.992;2023-05-07T11:17:18;1.85;;;1.58;;
19842;SDS011;10082;51.038;6.992;2023-05-07T11:19:51;1.50;;;1.40;;
19842;SDS011;10082;51.038;6.992;2023-05-07T11:22:44;1.92;;;1.48;;
19842;SDS011;10082;51.038;6.992;2023-05-07T11:25:24;1.80;;;1.40;;
19842;SDS011;10082;51.038;6.992;2023-05-07T11:28:09;1.50;;;1.40;;
19842;SDS011;10082;51.038;6.992;2023-05-07T11:30:56;1.52;;;1.42;;
19842;SDS011;10082;51.038;6.992;2023-05-07T11:33:29;1.77;;;1.67;;
19842;SDS011;10082;51.038;6.992;2023-05-07T11:35:59;1.80;;;1.40;;
19842;SDS011;10082;51.038;6.992;2023-05-07T11:38:34;2.17;;;1.60;;
19842;SDS011;10082;51.038;6.992;2023-05-07T11:41:04;1.70;;;1.40;;
19842;SDS011;10082;51.038;6.992;2023-05-07T11:43:33;2.03;;;1.50;;
19842;SDS011;10082;51.038;6.992;2023-05-07T11:46:05;4.45;;;1.70;;
19842;SDS011;10082;51.038;6.992;2023-05-07T11:48:35;2.28;;;1.60;;
19842;SDS011;10082;51.038;6.992;2023-05-07T11:51:02;1.73;;;1.63;;
19842;SDS011;10082;51.038;6.992;2023-05-07T11:53:38;1.70;;;1.60;;
19842;SDS011;10082;51.038;6.992;2023-05-07T11:56:06;1.45;;;1.35;;
19842;SDS011;10082;51.038;6.992;2023-05-07T11:58:35;1.98;;;1.60;;
19842;SDS011;10082;51.038;6.992;2023-05-07T12:01:03;2.35;;;1.42;;
19842;SDS011;10082;51.038;6.992;2023-05-07T12:03:31;2.53;;;1.77;;
19842;SDS011;10082;51.038;6.992;2023-05-07T12:05:59;1.50;;;1.40;;
19842;SDS011;10082;51.038;6.992;2023-05-07T12:08:26;2.72;;;1.58;;
19842;SDS011;10082;51.038;6.992;2023-05-07T12:10:54;2.75;;;1.70;;
19842;SDS011;10082;51.038;6.992;2023-05-07T12:13:22;1.60;;;1.50;;
19842;SDS011;10082;51.038;6.992;2023-05-07T12:15:52;1.30;;;1.20;;
19842;SDS011;10082;51.038;6.992;2023-05-07T12:18:20;1.65;;;1.30;;
19842;SDS011;10082;51.038;6.992;2023-05-07T12:20:48;1.48;;;1.38;;
19842;SDS011;10082;51.038;6.992;2023-05-07T12:23:15;3.58;;;3.28;;
19842;SDS011;10082;51.038;6.992;2023-05-07T12:25:43;3.50;;;3.20;;
19842;SDS011;10082;51.038;6.992;2023-05-07T12:28:13;2.03;;;1.48;;
19842;SDS011;10082;51.038;6.992;2023-05-07T12:30:41;4.32;;;3.33;;
19842;SDS011;10082;51.038;6.992;2023-05-07T12:33:11;1.65;;;1.50;;
19842;SDS011;10082;51.038;6.992;2023-05-07T12:35:39;2.75;;;1.30;;
19842;SDS011;10082;51.038;6.992;2023-05-07T12:40:44;1.67;;;1.58;;
19842;SDS011;10082;51.038;6.992;2023-05-07T12:43:16;2.33;;;1.75;;
19842;SDS011;10082;51.038;6.992;2023-05-07T12:45:43;3.00;;;1.90;;
19842;SDS011;10082;51.038;6.992;2023-05-07T12:48:13;2.00;;;1.77;;
19842;SDS011;10082;51.038;6.992;2023-05-07T12:50:40;2.63;;;1.50;;
19842;SDS011;10082;51.038;6.992;2023-05-07T12:53:09;1.80;;;1.50;;
19842;SDS011;10082;51.038;6.992;2023-05-07T12:55:42;1.60;;;1.50;;
19842;SDS011;10082;51.038;6.992;2023-05-07T12:58:14;1.55;;;1.45;;
19842;SDS011;10082;51.038;6.992;2023-05-07T13:00:43;3.33;;;1.80;;
19842;SDS011;10082;51.038;6.992;2023-05-07T13:03:10;1.70;;;1.60;;
19842;SDS011;10082;51.038;6.992;2023-05-07T13:05:38;3.80;;;2.33;;
19842;SDS011;10082;51.038;6.992;2023-05-07T13:08:05;1.90;;;1.80;;
19842;SDS011;10082;51.038;6.992;2023-05-07T13:10:35;1.70;;;1.60;;
19842;SDS011;10082;51.038;6.992;2023-05-07T13:13:02;2.22;;;1.92;;
19842;SDS011;10082;51.038;6.992;2023-05-07T13:15:29;1.58;;;1.45;;
19842;SDS011;10082;51.038;6.992;2023-05-07T13:17:57;1.88;;;1.60;;
19842;SDS011;10082;51.038;6.992;2023-05-07T13:20:24;2.25;;;1.67;;
19842;SDS011;10082;51.038;6.992;2023-05-07T13:22:53;1.80;;;1.70;;
19842;SDS011;10082;51.038;6.992;2023-05-07T13:25:20;2.03;;;1.83;;
19842;SDS011;10082;51.038;6.992;2023-05-07T13:27:47;1.88;;;1.70;;
19842;SDS011;10082;51.038;6.992;2023-05-07T13:30:14;1.85;;;1.70;;
19842;SDS011;10082;51.038;6.992;2023-05-07T13:32:41;2.03;;;1.73;;
19842;SDS011;10082;51.038;6.992;2023-05-07T13:35:09;1.58;;;1.42;;
19842;SDS011;10082;51.038;6.992;2023-05-07T13:37:36;1.70;;;1.52;;
19842;SDS011;10082;51.038;6.992;2023-05-07T13:40:06;1.77;;;1.67;;
19842;SDS011;10082;51.038;6.992;2023-05-07T13:42:37;1.85;;;1.40;;
19842;SDS011;10082;51.038;6.992;2023-05-07T13:45:04;3.58;;;1.77;;
19842;SDS011;10082;51.038;6.992;2023-05-07T13:47:32;1.70;;;1.60;;
19842;SDS011;10082;51.038;6.992;2023-05-07T13:49:59;1.83;;;1.73;;
19842;SDS011;10082;51.038;6.992;2023-05-07T13:52:27;1.90;;;1.80;;
19842;SDS011;10082;51.038;6.992;2023-05-07T13:54:54;2.30;;;1.60;;
19842;SDS011;10082;51.038;6.992;2023-05-07T13:57:23;1.90;;;1.67;;
19842;SDS011;10082;51.038;6.992;2023-05-07T13:59:51;2.40;;;1.83;;
19842;SDS011;10082;51.038;6.992;2023-05-07T14:02:21;2.10;;;1.92;;
19842;SDS011;10082;51.038;6.992;2023-05-07T14:04:48;2.80;;;2.33;;
19842;SDS011;10082;51.038;6.992;2023-05-07T14:07:15;3.00;;;2.50;;
19842;SDS011;10082;51.038;6.992;2023-05-07T14:09:42;2.97;;;2.78;;
19842;SDS011;10082;51.038;6.992;2023-05-07T14:12:10;2.58;;;2.38;;
19842;SDS011;10082;51.038;6.992;2023-05-07T14:14:39;2.05;;;1.85;;
19842;SDS011;10082;51.038;6.992;2023-05-07T14:17:09;2.17;;;1.90;;
19842;SDS011;10082;51.038;6.992;2023-05-07T14:19:37;4.22;;;2.20;;
19842;SDS011;10082;51.038;6.992;2023-05-07T14:22:05;2.70;;;2.20;;
19842;SDS011;10082;51.038;6.992;2023-05-07T14:24:33;2.53;;;1.88;;
19842;SDS011;10082;51.038;6.992;2023-05-07T14:27:05;2.35;;;2.10;;
19842;SDS011;10082;51.038;6.992;2023-05-07T14:29:33;2.85;;;2.28;;
19842;SDS011;10082;51.038;6.992;2023-05-07T14:32:02;2.92;;;2.72;;
19842;SDS011;10082;51.038;6.992;2023-05-07T14:34:30;2.10;;;2.00;;
19842;SDS011;10082;51.038;6.992;2023-05-07T14:37:00;3.47;;;2.10;;
19842;SDS011;10082;51.038;6.992;2023-05-07T14:39:28;2.42;;;2.20;;
19842;SDS011;10082;51.038;6.992;2023-05-07T14:41:57;4.65;;;2.70;;
19842;SDS011;10082;51.038;6.992;2023-05-07T14:44:25;3.28;;;3.05;;
19842;SDS011;10082;51.038;6.992;2023-05-07T14:46:52;2.72;;;2.38;;
19842;SDS011;10082;51.038;6.992;2023-05-07T14:49:22;3.42;;;2.60;;
19842;SDS011;10082;51.038;6.992;2023-05-07T14:51:49;3.75;;;2.35;;
19842;SDS011;10082;51.038;6.992;2023-05-07T14:54:16;2.92;;;2.55;;
19842;SDS011;10082;51.038;6.992;2023-05-07T14:56:43;4.13;;;2.40;;
19842;SDS011;10082;51.038;6.992;2023-05-07T14:59:10;3.35;;;2.22;;
19842;SDS011;10082;51.038;6.992;2023-05-07T15:01:37;2.20;;;2.00;;
19842;SDS011;10082;51.038;6.992;2023-05-07T15:04:07;2.50;;;2.30;;
19842;SDS011;10082;51.038;6.992;2023-05-07T15:06:36;2.40;;;2.20;;
19842;SDS011;10082;51.038;6.992;2023-05-07T15:09:04;3.08;;;2.40;;
19842;SDS011;10082;51.038;6.992;2023-05-07T15:11:31;3.33;;;3.03;;
19842;SDS011;10082;51.038;6.992;2023-05-07T15:13:58;3.22;;;2.90;;
19842;SDS011;10082;51.038;6.992;2023-05-07T15:16:25;3.92;;;3.05;;
19842;SDS011;10082;51.038;6.992;2023-05-07T15:18:53;3.33;;;3.03;;